sensor_id;sensor_type;location;lat;lon;timestamp;P1;durP1;ratioP1;P2;durP2;ratioP2
16199;SDS011;8207;52.494;4.654;2023-03-11T00:01:05;3.70;;;1.20;;
16199;SDS011;8207;52.494;4.654;2023-03-11T00:03:34;1.60;;;0.77;;
16199;SDS011;8207;52.494;4.654;2023-03-11T00:06:01;3.43;;;0.90;;
16199;SDS011;8207;52.494;4.654;2023-03-11T00:08:28;2.80;;;0.70;;
16199;SDS011;8207;52.494;4.654;2023-03-11T00:10:55;1.93;;;0.90;;
16199;SDS011;8207;52.494;4.654;2023-03-11T00:13:24;4.13;;;0.83;;
16199;SDS011;8207;52.494;4.654;2023-03-11T00:15:52;2.63;;;0.83;;
16199;SDS011;8207;52.494;4.654;2023-03-11T00:18:21;6.93;;;1.93;;
16199;SDS011;8207;52.494;4.654;2023-03-11T00:20:52;7.70;;;1.47;;
16199;SDS011;8207;52.494;4.654;2023-03-11T00:23:20;9.50;;;2.00;;
16199;SDS011;8207;52.494;4.654;2023-03-11T00:25:48;2.93;;;1.10;;
16199;SDS011;8207;52.494;4.654;2023-03-11T00:28:15;4.23;;;1.20;;
16199;SDS011;8207;52.494;4.654;2023-03-11T00:30:43;3.63;;;0.80;;
16199;SDS011;8207;52.494;4.654;2023-03-11T00:33:11;2.53;;;0.80;;
16199;SDS011;8207;52.494;4.654;2023-03-11T00:35:40;4.57;;;0.93;;
16199;SDS011;8207;52.494;4.654;2023-03-11T00:38:12;3.03;;;0.83;;
16199;SDS011;8207;52.494;4.654;2023-03-11T00:40:40;2.47;;;0.87;;
16199;SDS011;8207;52.494;4.654;2023-03-11T00:43:09;5.60;;;1.10;;
16199;SDS011;8207;52.494;4.654;2023-03-11T00:45:35;3.90;;;0.80;;
16199;SDS011;8207;52.494;4.654;2023-03-11T00:48:03;3.10;;;1.00;;
16199;SDS011;8207;52.494;4.654;2023-03-11T00:50:31;6.00;;;1.77;;
16199;SDS011;8207;52.494;4.654;2023-03-11T00:52:59;3.20;;;1.00;;
16199;SDS011;8207;52.494;4.654;2023-03-11T00:55:29;3.23;;;0.83;;
16199;SDS011;8207;52.494;4.654;2023-03-11T00:57:58;5.73;;;0.90;;
16199;SDS011;8207;52.494;4.654;2023-03-11T01:00:27;4.60;;;1.00;;
16199;SDS011;8207;52.494;4.654;2023-03-11T01:02:55;3.47;;;0.70;;
16199;SDS011;8207;52.494;4.654;2023-03-11T01:05:24;2.93;;;1.10;;
16199;SDS011;8207;52.494;4.654;2023-03-11T01:07:53;4.13;;;1.40;;
16199;SDS011;8207;52.494;4.654;2023-03-11T01:10:19;4.17;;;1.00;;
16199;SDS011;8207;52.494;4.654;2023-03-11T01:12:48;2.50;;;0.90;;
16199;SDS011;8207;52.494;4.654;2023-03-11T01:15:17;5.07;;;1.13;;
16199;SDS011;8207;52.494;4.654;2023-03-11T01:17:46;2.83;;;0.73;;
16199;SDS011;8207;52.494;4.654;2023-03-11T01:20:13;2.10;;;0.87;;
16199;SDS011;8207;52.494;4.654;2023-03-11T01:22:41;3.67;;;1.13;;
16199;SDS011;8207;52.494;4.654;2023-03-11T01:25:09;2.47;;;1.00;;
16199;SDS011;8207;52.494;4.654;2023-03-11T01:27:37;2.60;;;1.20;;
16199;SDS011;8207;52.494;4.654;2023-03-11T01:30:06;1.03;;;0.80;;
16199;SDS011;8207;52.494;4.654;2023-03-11T01:32:44;4.60;;;1.03;;
16199;SDS011;8207;52.494;4.654;2023-03-11T01:35:12;4.33;;;0.97;;
16199;SDS011;8207;52.494;4.654;2023-03-11T01:37:41;2.67;;;0.90;;
16199;SDS011;8207;52.494;4.654;2023-03-11T01:40:11;1.53;;;0.70;;
16199;SDS011;8207;52.494;4.654;2023-03-11T01:42:42;3.97;;;0.87;;
16199;SDS011;8207;52.494;4.654;2023-03-11T01:45:23;5.83;;;1.00;;
16199;SDS011;8207;52.494;4.654;2023-03-11T01:47:59;8.10;;;1.57;;
16199;SDS011;8207;52.494;4.654;2023-03-11T01:50:26;1.73;;;0.80;;
16199;SDS011;8207;52.494;4.654;2023-03-11T01:52:59;5.23;;;0.93;;
16199;SDS011;8207;52.494;4.654;2023-03-11T01:55:26;1.70;;;0.90;;
16199;SDS011;8207;52.494;4.654;2023-03-11T01:57:53;8.10;;;1.10;;
16199;SDS011;8207;52.494;4.654;2023-03-11T02:00:22;2.57;;;0.90;;
16199;SDS011;8207;52.494;4.654;2023-03-11T02:02:50;2.60;;;0.77;;
16199;SDS011;8207;52.494;4.654;2023-03-11T02:05:17;3.73;;;1.00;;
16199;SDS011;8207;52.494;4.654;2023-03-11T02:07:46;2.97;;;0.80;;
16199;SDS011;8207;52.494;4.654;2023-03-11T02:10:14;3.47;;;0.80;;
16199;SDS011;8207;52.494;4.654;2023-03-11T02:12:41;2.23;;;1.57;;
16199;SDS011;8207;52.494;4.654;2023-03-11T02:15:09;3.17;;;0.90;;
16199;SDS011;8207;52.494;4.654;2023-03-11T02:17:39;4.20;;;1.00;;
16199;SDS011;8207;52.494;4.654;2023-03-11T02:20:11;5.53;;;0.97;;
16199;SDS011;8207;52.494;4.654;2023-03-11T02:22:44;1.57;;;1.30;;
16199;SDS011;8207;52.494;4.654;2023-03-11T02:25:14;2.40;;;0.80;;
16199;SDS011;8207;52.494;4.654;2023-03-11T02:27:47;1.33;;;0.60;;
16199;SDS011;8207;52.494;4.654;2023-03-11T02:30:17;6.07;;;1.03;;
16199;SDS011;8207;52.494;4.654;2023-03-11T02:32:46;2.17;;;1.13;;
16199;SDS011;8207;52.494;4.654;2023-03-11T02:35:14;4.23;;;0.90;;
16199;SDS011;8207;52.494;4.654;2023-03-11T02:37:42;2.57;;;0.77;;
16199;SDS011;8207;52.494;4.654;2023-03-11T02:43:11;4.03;;;0.73;;
16199;SDS011;8207;52.494;4.654;2023-03-11T02:45:41;3.07;;;0.83;;
16199;SDS011;8207;52.494;4.654;2023-03-11T02:48:11;3.97;;;0.90;;
16199;SDS011;8207;52.494;4.654;2023-03-11T02:50:39;3.77;;;0.90;;
16199;SDS011;8207;52.494;4.654;2023-03-11T02:53:07;1.37;;;0.80;;
16199;SDS011;8207;52.494;4.654;2023-03-11T02:55:34;2.27;;;1.00;;
16199;SDS011;8207;52.494;4.654;2023-03-11T02:58:01;4.47;;;1.23;;
16199;SDS011;8207;52.494;4.654;2023-03-11T03:00:30;3.87;;;0.90;;
16199;SDS011;8207;52.494;4.654;2023-03-11T03:02:57;1.40;;;0.90;;
16199;SDS011;8207;52.494;4.654;2023-03-11T03:05:24;2.07;;;0.73;;
16199;SDS011;8207;52.494;4.654;2023-03-11T03:07:51;1.97;;;0.60;;
16199;SDS011;8207;52.494;4.654;2023-03-11T03:10:19;1.53;;;1.00;;
16199;SDS011;8207;52.494;4.654;2023-03-11T03:12:47;2.53;;;1.00;;
16199;SDS011;8207;52.494;4.654;2023-03-11T03:15:14;2.40;;;1.00;;
16199;SDS011;8207;52.494;4.654;2023-03-11T03:17:43;2.93;;;0.97;;
16199;SDS011;8207;52.494;4.654;2023-03-11T03:20:10;4.67;;;0.90;;
16199;SDS011;8207;52.494;4.654;2023-03-11T03:22:38;3.43;;;1.03;;
16199;SDS011;8207;52.494;4.654;2023-03-11T03:25:07;3.50;;;1.23;;
16199;SDS011;8207;52.494;4.654;2023-03-11T03:27:36;1.93;;;0.80;;
16199;SDS011;8207;52.494;4.654;2023-03-11T03:30:03;3.87;;;1.10;;
16199;SDS011;8207;52.494;4.654;2023-03-11T03:32:31;1.63;;;0.97;;
16199;SDS011;8207;52.494;4.654;2023-03-11T03:34:59;6.43;;;1.17;;
16199;SDS011;8207;52.494;4.654;2023-03-11T03:37:27;2.60;;;0.70;;
16199;SDS011;8207;52.494;4.654;2023-03-11T03:39:54;1.53;;;0.83;;
16199;SDS011;8207;52.494;4.654;2023-03-11T03:42:21;3.40;;;2.00;;
16199;SDS011;8207;52.494;4.654;2023-03-11T03:44:49;0.87;;;0.60;;
16199;SDS011;8207;52.494;4.654;2023-03-11T03:47:17;2.50;;;0.70;;
16199;SDS011;8207;52.494;4.654;2023-03-11T03:49:44;3.83;;;0.90;;
16199;SDS011;8207;52.494;4.654;2023-03-11T03:52:12;0.97;;;0.60;;
16199;SDS011;8207;52.494;4.654;2023-03-11T03:54:40;1.63;;;0.77;;
16199;SDS011;8207;52.494;4.654;2023-03-11T03:57:07;1.87;;;0.67;;
16199;SDS011;8207;52.494;4.654;2023-03-11T03:59:34;1.70;;;0.60;;
16199;SDS011;8207;52.494;4.654;2023-03-11T04:02:01;0.77;;;0.57;;
16199;SDS011;8207;52.494;4.654;2023-03-11T04:04:28;3.10;;;1.00;;
16199;SDS011;8207;52.494;4.654;2023-03-11T04:06:55;1.73;;;0.90;;
16199;SDS011;8207;52.494;4.654;2023-03-11T04:09:23;1.47;;;0.77;;
16199;SDS011;8207;52.494;4.654;2023-03-11T04:11:51;1.47;;;0.70;;
16199;SDS011;8207;52.494;4.654;2023-03-11T04:14:18;2.87;;;0.70;;
16199;SDS011;8207;52.494;4.654;2023-03-11T04:16:44;5.53;;;0.80;;
16199;SDS011;8207;52.494;4.654;2023-03-11T04:19:11;2.50;;;1.03;;
16199;SDS011;8207;52.494;4.654;2023-03-11T04:21:38;2.20;;;1.40;;
16199;SDS011;8207;52.494;4.654;2023-03-11T04:24:05;2.23;;;0.80;;
16199;SDS011;8207;52.494;4.654;2023-03-11T04:26:34;2.27;;;0.63;;
16199;SDS011;8207;52.494;4.654;2023-03-11T04:29:01;1.30;;;0.90;;
16199;SDS011;8207;52.494;4.654;2023-03-11T04:31:28;4.03;;;1.03;;
16199;SDS011;8207;52.494;4.654;2023-03-11T04:33:55;1.30;;;0.73;;
16199;SDS011;8207;52.494;4.654;2023-03-11T04:36:21;1.13;;;0.77;;
16199;SDS011;8207;52.494;4.654;2023-03-11T04:38:48;2.23;;;0.80;;
16199;SDS011;8207;52.494;4.654;2023-03-11T04:41:15;1.20;;;0.93;;
16199;SDS011;8207;52.494;4.654;2023-03-11T04:43:44;3.13;;;0.73;;
16199;SDS011;8207;52.494;4.654;2023-03-11T04:46:11;3.27;;;0.93;;
16199;SDS011;8207;52.494;4.654;2023-03-11T04:48:37;3.17;;;0.87;;
16199;SDS011;8207;52.494;4.654;2023-03-11T04:51:04;2.60;;;1.10;;
16199;SDS011;8207;52.494;4.654;2023-03-11T04:53:32;2.70;;;0.77;;
16199;SDS011;8207;52.494;4.654;2023-03-11T04:55:59;0.93;;;0.70;;
16199;SDS011;8207;52.494;4.654;2023-03-11T04:58:26;4.00;;;0.90;;
16199;SDS011;8207;52.494;4.654;2023-03-11T05:00:55;2.37;;;0.90;;
16199;SDS011;8207;52.494;4.654;2023-03-11T05:03:22;1.40;;;0.83;;
16199;SDS011;8207;52.494;4.654;2023-03-11T05:05:49;1.57;;;0.80;;
16199;SDS011;8207;52.494;4.654;2023-03-11T05:08:18;2.30;;;1.20;;
16199;SDS011;8207;52.494;4.654;2023-03-11T05:10:45;3.67;;;1.57;;
16199;SDS011;8207;52.494;4.654;2023-03-11T05:13:12;4.10;;;1.60;;
16199;SDS011;8207;52.494;4.654;2023-03-11T05:15:39;2.90;;;1.40;;
16199;SDS011;8207;52.494;4.654;2023-03-11T05:18:08;4.13;;;1.60;;
16199;SDS011;8207;52.494;4.654;2023-03-11T05:20:34;1.83;;;1.20;;
16199;SDS011;8207;52.494;4.654;2023-03-11T05:23:02;2.90;;;1.50;;
16199;SDS011;8207;52.494;4.654;2023-03-11T05:25:29;4.00;;;1.10;;
16199;SDS011;8207;52.494;4.654;2023-03-11T05:27:56;1.03;;;0.70;;
16199;SDS011;8207;52.494;4.654;2023-03-11T05:30:23;1.70;;;1.00;;
16199;SDS011;8207;52.494;4.654;2023-03-11T05:32:50;1.87;;;1.10;;
16199;SDS011;8207;52.494;4.654;2023-03-11T05:35:18;2.37;;;1.10;;
16199;SDS011;8207;52.494;4.654;2023-03-11T05:37:45;2.97;;;0.80;;
16199;SDS011;8207;52.494;4.654;2023-03-11T05:40:14;0.90;;;0.70;;
16199;SDS011;8207;52.494;4.654;2023-03-11T05:42:41;2.53;;;1.00;;
16199;SDS011;8207;52.494;4.654;2023-03-11T05:45:09;1.90;;;1.00;;
16199;SDS011;8207;52.494;4.654;2023-03-11T05:47:36;3.20;;;1.10;;
16199;SDS011;8207;52.494;4.654;2023-03-11T05:50:03;1.47;;;0.90;;
16199;SDS011;8207;52.494;4.654;2023-03-11T05:52:32;3.90;;;0.90;;
16199;SDS011;8207;52.494;4.654;2023-03-11T05:54:59;2.43;;;1.17;;
16199;SDS011;8207;52.494;4.654;2023-03-11T05:57:26;3.13;;;1.10;;
16199;SDS011;8207;52.494;4.654;2023-03-11T05:59:53;1.73;;;0.80;;
16199;SDS011;8207;52.494;4.654;2023-03-11T06:02:20;3.90;;;1.10;;
16199;SDS011;8207;52.494;4.654;2023-03-11T06:04:47;3.43;;;0.93;;
16199;SDS011;8207;52.494;4.654;2023-03-11T06:07:14;2.20;;;0.90;;
16199;SDS011;8207;52.494;4.654;2023-03-11T06:09:42;2.17;;;1.03;;
16199;SDS011;8207;52.494;4.654;2023-03-11T06:12:09;1.57;;;0.90;;
16199;SDS011;8207;52.494;4.654;2023-03-11T06:14:36;1.90;;;1.07;;
16199;SDS011;8207;52.494;4.654;2023-03-11T06:17:03;2.53;;;1.27;;
16199;SDS011;8207;52.494;4.654;2023-03-11T06:19:30;2.33;;;1.20;;
16199;SDS011;8207;52.494;4.654;2023-03-11T06:21:57;2.43;;;1.00;;
16199;SDS011;8207;52.494;4.654;2023-03-11T06:24:24;2.37;;;1.13;;
16199;SDS011;8207;52.494;4.654;2023-03-11T06:26:52;1.50;;;1.10;;
16199;SDS011;8207;52.494;4.654;2023-03-11T06:29:19;2.20;;;1.07;;
16199;SDS011;8207;52.494;4.654;2023-03-11T06:31:48;1.90;;;1.10;;
16199;SDS011;8207;52.494;4.654;2023-03-11T06:34:15;2.07;;;1.20;;
16199;SDS011;8207;52.494;4.654;2023-03-11T06:36:42;2.33;;;1.10;;
16199;SDS011;8207;52.494;4.654;2023-03-11T06:39:11;2.03;;;0.87;;
16199;SDS011;8207;52.494;4.654;2023-03-11T06:41:39;3.00;;;1.40;;
16199;SDS011;8207;52.494;4.654;2023-03-11T06:44:09;5.20;;;1.33;;
16199;SDS011;8207;52.494;4.654;2023-03-11T06:46:37;3.80;;;1.90;;
16199;SDS011;8207;52.494;4.654;2023-03-11T06:49:04;2.77;;;1.20;;
16199;SDS011;8207;52.494;4.654;2023-03-11T06:51:31;4.20;;;1.63;;
16199;SDS011;8207;52.494;4.654;2023-03-11T06:53:58;4.43;;;1.67;;
16199;SDS011;8207;52.494;4.654;2023-03-11T06:56:25;1.57;;;1.10;;
16199;SDS011;8207;52.494;4.654;2023-03-11T06:58:52;2.17;;;1.10;;
16199;SDS011;8207;52.494;4.654;2023-03-11T07:01:21;2.37;;;1.47;;
16199;SDS011;8207;52.494;4.654;2023-03-11T07:03:49;3.30;;;1.30;;
16199;SDS011;8207;52.494;4.654;2023-03-11T07:06:18;3.47;;;1.37;;
16199;SDS011;8207;52.494;4.654;2023-03-11T07:08:46;2.50;;;1.30;;
16199;SDS011;8207;52.494;4.654;2023-03-11T07:11:14;5.00;;;1.83;;
16199;SDS011;8207;52.494;4.654;2023-03-11T07:13:43;3.87;;;1.43;;
16199;SDS011;8207;52.494;4.654;2023-03-11T07:16:11;3.33;;;1.30;;
16199;SDS011;8207;52.494;4.654;2023-03-11T07:18:41;5.13;;;2.10;;
16199;SDS011;8207;52.494;4.654;2023-03-11T07:21:08;3.90;;;1.87;;
16199;SDS011;8207;52.494;4.654;2023-03-11T07:23:39;5.67;;;2.20;;
16199;SDS011;8207;52.494;4.654;2023-03-11T07:26:07;3.60;;;2.00;;
16199;SDS011;8207;52.494;4.654;2023-03-11T07:28:35;8.47;;;2.87;;
16199;SDS011;8207;52.494;4.654;2023-03-11T07:31:05;3.93;;;2.40;;
16199;SDS011;8207;52.494;4.654;2023-03-11T07:33:33;6.03;;;3.07;;
16199;SDS011;8207;52.494;4.654;2023-03-11T07:36:05;6.87;;;2.73;;
16199;SDS011;8207;52.494;4.654;2023-03-11T07:38:33;7.67;;;2.90;;
16199;SDS011;8207;52.494;4.654;2023-03-11T07:41:00;5.13;;;2.83;;
16199;SDS011;8207;52.494;4.654;2023-03-11T07:43:27;5.30;;;2.70;;
16199;SDS011;8207;52.494;4.654;2023-03-11T07:46:01;7.10;;;3.10;;
16199;SDS011;8207;52.494;4.654;2023-03-11T07:48:29;6.10;;;3.27;;
16199;SDS011;8207;52.494;4.654;2023-03-11T07:51:00;4.53;;;3.07;;
16199;SDS011;8207;52.494;4.654;2023-03-11T07:53:29;6.53;;;3.60;;
16199;SDS011;8207;52.494;4.654;2023-03-11T07:55:56;4.90;;;2.70;;
16199;SDS011;8207;52.494;4.654;2023-03-11T07:58:24;4.70;;;3.20;;
16199;SDS011;8207;52.494;4.654;2023-03-11T08:01:13;4.63;;;3.30;;
16199;SDS011;8207;52.494;4.654;2023-03-11T08:04:33;5.10;;;3.13;;
16199;SDS011;8207;52.494;4.654;2023-03-11T08:07:00;9.27;;;3.40;;
16199;SDS011;8207;52.494;4.654;2023-03-11T08:09:29;6.03;;;3.27;;
16199;SDS011;8207;52.494;4.654;2023-03-11T08:11:56;8.00;;;3.47;;
16199;SDS011;8207;52.494;4.654;2023-03-11T08:14:23;6.93;;;3.43;;
16199;SDS011;8207;52.494;4.654;2023-03-11T08:16:49;8.10;;;3.20;;
16199;SDS011;8207;52.494;4.654;2023-03-11T08:19:16;5.13;;;3.10;;
16199;SDS011;8207;52.494;4.654;2023-03-11T08:21:43;4.40;;;2.53;;
16199;SDS011;8207;52.494;4.654;2023-03-11T08:24:11;4.33;;;2.43;;
16199;SDS011;8207;52.494;4.654;2023-03-11T08:26:40;4.80;;;2.27;;
16199;SDS011;8207;52.494;4.654;2023-03-11T08:29:08;8.23;;;2.37;;
16199;SDS011;8207;52.494;4.654;2023-03-11T08:31:38;2.20;;;1.43;;
16199;SDS011;8207;52.494;4.654;2023-03-11T08:34:06;4.50;;;1.07;;
16199;SDS011;8207;52.494;4.654;2023-03-11T08:36:34;5.83;;;1.80;;
16199;SDS011;8207;52.494;4.654;2023-03-11T08:39:01;2.60;;;1.30;;
16199;SDS011;8207;52.494;4.654;2023-03-11T08:41:28;2.37;;;1.23;;
16199;SDS011;8207;52.494;4.654;2023-03-11T08:43:56;3.50;;;2.10;;
16199;SDS011;8207;52.494;4.654;2023-03-11T08:46:24;6.63;;;1.87;;
16199;SDS011;8207;52.494;4.654;2023-03-11T08:48:52;4.23;;;1.70;;
16199;SDS011;8207;52.494;4.654;2023-03-11T08:51:20;3.07;;;2.17;;
16199;SDS011;8207;52.494;4.654;2023-03-11T08:53:48;6.07;;;4.33;;
16199;SDS011;8207;52.494;4.654;2023-03-11T08:56:15;4.83;;;2.20;;
16199;SDS011;8207;52.494;4.654;2023-03-11T08:58:42;5.43;;;1.80;;
16199;SDS011;8207;52.494;4.654;2023-03-11T09:01:11;1.80;;;1.00;;
16199;SDS011;8207;52.494;4.654;2023-03-11T09:03:39;1.43;;;0.83;;
16199;SDS011;8207;52.494;4.654;2023-03-11T09:06:07;2.83;;;0.60;;
16199;SDS011;8207;52.494;4.654;2023-03-11T09:08:36;4.87;;;1.00;;
16199;SDS011;8207;52.494;4.654;2023-03-11T09:11:03;2.93;;;0.80;;
16199;SDS011;8207;52.494;4.654;2023-03-11T09:13:31;1.40;;;0.60;;
16199;SDS011;8207;52.494;4.654;2023-03-11T09:15:58;2.00;;;0.60;;
16199;SDS011;8207;52.494;4.654;2023-03-11T09:18:26;1.53;;;0.83;;
16199;SDS011;8207;52.494;4.654;2023-03-11T09:20:53;3.03;;;1.20;;
16199;SDS011;8207;52.494;4.654;2023-03-11T09:23:22;2.47;;;1.10;;
16199;SDS011;8207;52.494;4.654;2023-03-11T09:25:49;2.87;;;1.23;;
16199;SDS011;8207;52.494;4.654;2023-03-11T09:28:16;2.00;;;0.70;;
16199;SDS011;8207;52.494;4.654;2023-03-11T09:30:43;0.87;;;0.50;;
16199;SDS011;8207;52.494;4.654;2023-03-11T09:33:10;2.00;;;0.57;;
16199;SDS011;8207;52.494;4.654;2023-03-11T09:35:38;3.97;;;1.23;;
16199;SDS011;8207;52.494;4.654;2023-03-11T09:38:05;4.03;;;0.87;;
16199;SDS011;8207;52.494;4.654;2023-03-11T09:40:38;4.43;;;1.27;;
16199;SDS011;8207;52.494;4.654;2023-03-11T09:43:15;2.77;;;0.73;;
16199;SDS011;8207;52.494;4.654;2023-03-11T09:45:52;3.80;;;0.70;;
16199;SDS011;8207;52.494;4.654;2023-03-11T09:48:26;2.33;;;1.07;;
16199;SDS011;8207;52.494;4.654;2023-03-11T09:50:59;1.03;;;0.67;;
16199;SDS011;8207;52.494;4.654;2023-03-11T09:53:34;1.33;;;0.50;;
16199;SDS011;8207;52.494;4.654;2023-03-11T09:56:06;1.80;;;0.57;;
16199;SDS011;8207;52.494;4.654;2023-03-11T09:58:35;3.17;;;0.77;;
16199;SDS011;8207;52.494;4.654;2023-03-11T10:01:07;3.30;;;1.10;;
16199;SDS011;8207;52.494;4.654;2023-03-11T10:03:42;3.63;;;0.80;;
16199;SDS011;8207;52.494;4.654;2023-03-11T10:06:14;4.43;;;0.70;;
16199;SDS011;8207;52.494;4.654;2023-03-11T10:08:44;2.47;;;0.70;;
16199;SDS011;8207;52.494;4.654;2023-03-11T10:11:26;1.97;;;0.57;;
16199;SDS011;8207;52.494;4.654;2023-03-11T10:14:05;0.67;;;0.50;;
16199;SDS011;8207;52.494;4.654;2023-03-11T10:16:40;2.33;;;1.10;;
16199;SDS011;8207;52.494;4.654;2023-03-11T10:19:17;4.27;;;1.00;;
16199;SDS011;8207;52.494;4.654;2023-03-11T10:21:58;3.83;;;0.90;;
16199;SDS011;8207;52.494;4.654;2023-03-11T10:24:38;2.10;;;1.00;;
16199;SDS011;8207;52.494;4.654;2023-03-11T10:27:16;4.33;;;0.80;;
16199;SDS011;8207;52.494;4.654;2023-03-11T10:29:50;2.20;;;1.10;;
16199;SDS011;8207;52.494;4.654;2023-03-11T10:32:23;3.87;;;0.70;;
16199;SDS011;8207;52.494;4.654;2023-03-11T10:34:56;4.10;;;1.53;;
16199;SDS011;8207;52.494;4.654;2023-03-11T10:37:32;3.37;;;0.97;;
16199;SDS011;8207;52.494;4.654;2023-03-11T10:40:06;3.50;;;0.80;;
16199;SDS011;8207;52.494;4.654;2023-03-11T10:42:43;3.70;;;1.40;;
16199;SDS011;8207;52.494;4.654;2023-03-11T10:45:12;0.90;;;0.70;;
16199;SDS011;8207;52.494;4.654;2023-03-11T10:47:40;1.73;;;0.73;;
16199;SDS011;8207;52.494;4.654;2023-03-11T10:50:07;2.10;;;0.80;;
16199;SDS011;8207;52.494;4.654;2023-03-11T10:52:42;1.67;;;0.70;;
16199;SDS011;8207;52.494;4.654;2023-03-11T10:55:28;1.97;;;0.70;;
16199;SDS011;8207;52.494;4.654;2023-03-11T10:58:02;3.57;;;1.20;;
16199;SDS011;8207;52.494;4.654;2023-03-11T11:00:31;2.13;;;0.70;;
16199;SDS011;8207;52.494;4.654;2023-03-11T11:02:58;2.00;;;0.57;;
16199;SDS011;8207;52.494;4.654;2023-03-11T11:05:28;4.20;;;1.47;;
16199;SDS011;8207;52.494;4.654;2023-03-11T11:08:02;7.03;;;1.63;;
16199;SDS011;8207;52.494;4.654;2023-03-11T11:10:32;2.23;;;0.67;;
16199;SDS011;8207;52.494;4.654;2023-03-11T11:13:00;3.40;;;0.70;;
16199;SDS011;8207;52.494;4.654;2023-03-11T11:15:29;0.93;;;0.50;;
16199;SDS011;8207;52.494;4.654;2023-03-11T11:17:58;3.73;;;1.10;;
16199;SDS011;8207;52.494;4.654;2023-03-11T11:20:27;3.37;;;0.83;;
16199;SDS011;8207;52.494;4.654;2023-03-11T11:22:56;3.23;;;0.70;;
16199;SDS011;8207;52.494;4.654;2023-03-11T11:25:27;2.33;;;1.10;;
16199;SDS011;8207;52.494;4.654;2023-03-11T11:27:56;3.27;;;1.07;;
16199;SDS011;8207;52.494;4.654;2023-03-11T11:30:25;2.50;;;1.20;;
16199;SDS011;8207;52.494;4.654;2023-03-11T11:32:53;5.70;;;1.00;;
16199;SDS011;8207;52.494;4.654;2023-03-11T11:35:21;2.30;;;1.17;;
16199;SDS011;8207;52.494;4.654;2023-03-11T11:37:49;1.23;;;0.80;;
16199;SDS011;8207;52.494;4.654;2023-03-11T11:40:22;2.90;;;0.80;;
16199;SDS011;8207;52.494;4.654;2023-03-11T11:42:53;2.90;;;1.03;;
16199;SDS011;8207;52.494;4.654;2023-03-11T11:45:27;2.77;;;1.50;;
16199;SDS011;8207;52.494;4.654;2023-03-11T11:47:58;2.17;;;0.70;;
16199;SDS011;8207;52.494;4.654;2023-03-11T11:50:31;3.23;;;0.80;;
16199;SDS011;8207;52.494;4.654;2023-03-11T11:53:03;3.33;;;0.87;;
16199;SDS011;8207;52.494;4.654;2023-03-11T11:55:42;4.97;;;1.30;;
16199;SDS011;8207;52.494;4.654;2023-03-11T11:58:12;4.13;;;1.30;;
16199;SDS011;8207;52.494;4.654;2023-03-11T12:00:42;2.73;;;1.00;;
16199;SDS011;8207;52.494;4.654;2023-03-11T12:06:21;4.73;;;1.63;;
16199;SDS011;8207;52.494;4.654;2023-03-11T12:08:57;3.43;;;0.90;;
16199;SDS011;8207;52.494;4.654;2023-03-11T12:11:33;3.73;;;1.10;;
16199;SDS011;8207;52.494;4.654;2023-03-11T12:14:08;2.03;;;0.60;;
16199;SDS011;8207;52.494;4.654;2023-03-11T12:16:42;3.93;;;0.80;;
16199;SDS011;8207;52.494;4.654;2023-03-11T12:19:18;2.90;;;0.77;;
16199;SDS011;8207;52.494;4.654;2023-03-11T12:24:52;5.57;;;1.17;;
16199;SDS011;8207;52.494;4.654;2023-03-11T12:27:40;2.17;;;0.80;;
16199;SDS011;8207;52.494;4.654;2023-03-11T12:30:15;3.20;;;0.87;;
16199;SDS011;8207;52.494;4.654;2023-03-11T12:32:45;3.47;;;1.20;;
16199;SDS011;8207;52.494;4.654;2023-03-11T12:35:18;3.33;;;0.97;;
16199;SDS011;8207;52.494;4.654;2023-03-11T12:37:54;2.27;;;0.80;;
16199;SDS011;8207;52.494;4.654;2023-03-11T12:43:55;1.23;;;0.60;;
16199;SDS011;8207;52.494;4.654;2023-03-11T12:49:35;2.97;;;0.80;;
16199;SDS011;8207;52.494;4.654;2023-03-11T12:52:05;1.83;;;0.70;;
16199;SDS011;8207;52.494;4.654;2023-03-11T12:54:43;3.13;;;1.00;;
16199;SDS011;8207;52.494;4.654;2023-03-11T12:57:22;3.23;;;0.90;;
16199;SDS011;8207;52.494;4.654;2023-03-11T13:00:10;1.47;;;0.70;;
16199;SDS011;8207;52.494;4.654;2023-03-11T13:02:52;1.07;;;0.70;;
16199;SDS011;8207;52.494;4.654;2023-03-11T13:05:41;4.63;;;1.37;;
16199;SDS011;8207;52.494;4.654;2023-03-11T13:08:25;4.70;;;0.73;;
16199;SDS011;8207;52.494;4.654;2023-03-11T13:10:57;3.30;;;0.60;;
16199;SDS011;8207;52.494;4.654;2023-03-11T13:13:35;4.43;;;1.67;;
16199;SDS011;8207;52.494;4.654;2023-03-11T13:25:27;3.73;;;0.97;;
16199;SDS011;8207;52.494;4.654;2023-03-11T13:27:58;2.10;;;0.70;;
16199;SDS011;8207;52.494;4.654;2023-03-11T13:30:50;1.73;;;0.70;;
16199;SDS011;8207;52.494;4.654;2023-03-11T13:33:30;1.67;;;0.77;;
16199;SDS011;8207;52.494;4.654;2023-03-11T13:36:08;3.47;;;1.00;;
16199;SDS011;8207;52.494;4.654;2023-03-11T13:41:46;3.73;;;1.00;;
16199;SDS011;8207;52.494;4.654;2023-03-11T13:44:15;3.57;;;1.50;;
16199;SDS011;8207;52.494;4.654;2023-03-11T13:46:51;3.83;;;1.10;;
16199;SDS011;8207;52.494;4.654;2023-03-11T13:49:29;3.23;;;0.90;;
16199;SDS011;8207;52.494;4.654;2023-03-11T13:52:01;4.13;;;1.67;;
16199;SDS011;8207;52.494;4.654;2023-03-11T13:54:33;2.57;;;1.30;;
16199;SDS011;8207;52.494;4.654;2023-03-11T13:57:04;3.43;;;1.10;;
16199;SDS011;8207;52.494;4.654;2023-03-11T13:59:37;5.37;;;1.50;;
16199;SDS011;8207;52.494;4.654;2023-03-11T14:02:12;3.97;;;1.60;;
16199;SDS011;8207;52.494;4.654;2023-03-11T14:04:47;4.73;;;1.90;;
16199;SDS011;8207;52.494;4.654;2023-03-11T14:07:18;2.10;;;0.90;;
16199;SDS011;8207;52.494;4.654;2023-03-11T14:09:50;4.93;;;1.37;;
16199;SDS011;8207;52.494;4.654;2023-03-11T14:12:32;6.67;;;2.10;;
16199;SDS011;8207;52.494;4.654;2023-03-11T14:15:15;1.73;;;0.77;;
16199;SDS011;8207;52.494;4.654;2023-03-11T14:19:03;2.73;;;1.03;;
16199;SDS011;8207;52.494;4.654;2023-03-11T14:21:34;5.07;;;0.97;;
16199;SDS011;8207;52.494;4.654;2023-03-11T14:24:01;2.20;;;1.10;;
16199;SDS011;8207;52.494;4.654;2023-03-11T14:26:29;5.20;;;1.07;;
16199;SDS011;8207;52.494;4.654;2023-03-11T14:29:00;2.80;;;0.80;;
16199;SDS011;8207;52.494;4.654;2023-03-11T14:31:33;3.67;;;0.70;;
16199;SDS011;8207;52.494;4.654;2023-03-11T14:34:01;2.67;;;1.03;;
16199;SDS011;8207;52.494;4.654;2023-03-11T14:36:42;3.70;;;0.97;;
16199;SDS011;8207;52.494;4.654;2023-03-11T14:39:23;4.00;;;0.60;;
16199;SDS011;8207;52.494;4.654;2023-03-11T14:41:55;4.43;;;1.27;;
16199;SDS011;8207;52.494;4.654;2023-03-11T14:44:38;3.53;;;1.03;;
16199;SDS011;8207;52.494;4.654;2023-03-11T14:47:08;3.40;;;1.03;;
16199;SDS011;8207;52.494;4.654;2023-03-11T14:49:37;4.57;;;0.80;;
16199;SDS011;8207;52.494;4.654;2023-03-11T14:52:09;4.00;;;0.90;;
16199;SDS011;8207;52.494;4.654;2023-03-11T14:54:43;5.80;;;0.80;;
16199;SDS011;8207;52.494;4.654;2023-03-11T14:57:14;2.37;;;0.70;;
16199;SDS011;8207;52.494;4.654;2023-03-11T14:59:45;5.50;;;0.90;;
16199;SDS011;8207;52.494;4.654;2023-03-11T15:02:38;2.13;;;0.87;;
16199;SDS011;8207;52.494;4.654;2023-03-11T15:05:10;4.13;;;1.00;;
16199;SDS011;8207;52.494;4.654;2023-03-11T15:07:46;5.00;;;1.40;;
16199;SDS011;8207;52.494;4.654;2023-03-11T15:10:14;4.60;;;1.73;;
16199;SDS011;8207;52.494;4.654;2023-03-11T15:12:42;3.77;;;1.00;;
16199;SDS011;8207;52.494;4.654;2023-03-11T15:15:20;5.70;;;1.30;;
16199;SDS011;8207;52.494;4.654;2023-03-11T15:17:52;3.57;;;0.90;;
16199;SDS011;8207;52.494;4.654;2023-03-11T15:20:24;2.93;;;1.67;;
16199;SDS011;8207;52.494;4.654;2023-03-11T15:22:55;6.27;;;0.93;;
16199;SDS011;8207;52.494;4.654;2023-03-11T15:25:26;4.00;;;1.10;;
16199;SDS011;8207;52.494;4.654;2023-03-11T15:27:54;4.63;;;1.30;;
16199;SDS011;8207;52.494;4.654;2023-03-11T15:30:22;5.53;;;0.97;;
16199;SDS011;8207;52.494;4.654;2023-03-11T15:32:51;4.03;;;0.83;;
16199;SDS011;8207;52.494;4.654;2023-03-11T15:35:19;2.70;;;0.80;;
16199;SDS011;8207;52.494;4.654;2023-03-11T15:37:47;6.00;;;1.73;;
16199;SDS011;8207;52.494;4.654;2023-03-11T15:40:24;3.47;;;0.80;;
16199;SDS011;8207;52.494;4.654;2023-03-11T15:43:06;3.33;;;0.90;;
16199;SDS011;8207;52.494;4.654;2023-03-11T15:45:45;4.70;;;1.30;;
16199;SDS011;8207;52.494;4.654;2023-03-11T15:48:12;6.03;;;1.20;;